x

Cape Lookout, Nc (clkn7) Weather Station

1:00pm - Fri 9th Dec 2016 All times are EST. -5 hours from GMT.

  • Wind
    13mph, 16mph gusts
  • Air Temp 41°f
  • Sea Pressure 1026.7mb
  • Cape Lookout, Nc
  • Cape Lookout, Nc

More Historic Weather Station data

Upgrade to MSW Pro to gain access to the past 30 days of data for over 8000 Wavebouys and Weather Stations around the globe.

Join Pro

Comparision Forecast

View Surf forecast
   
Fri 12/09 1:00pm 13 16 mph 1026.7mb 41f
12:00pm 14 17 mph 1026.9mb 41f
11:00am 14 17 mph 1027.4mb 40f
10:00am 15 17 mph 1027.5mb 39f
9:00am 20 24 mph 1027.1mb 38f
8:00am 20 23 mph 1026.5mb 38f
7:00am 23 29 mph 1025.4mb 38f
6:00am 21 24 mph 1024.3mb 39f
5:00am 24 29 mph 1023.4mb 41f
4:00am 25 30 mph 1023.4mb 42f
3:00am 23 28 mph 1023mb 43f
2:00am 22 28 mph 1022.4mb 46f
1:00am 21 25 mph 1021.6mb 47f
12:00am 17 21 mph 1021.1mb 48f
Thu 12/08 11:00pm 17 22 mph 1021.6mb 48f
10:00pm 20 22 mph 1021.5mb 48f
9:00pm 15 18 mph 1021.3mb 49f
8:00pm 14 17 mph 1021.1mb 50f
7:00pm 17 23 mph 1020.3mb 51f
6:00pm 15 18 mph 1019.6mb 52f
5:00pm 20 23 mph 1018.1mb 54f
4:00pm 14 15 mph 1016.8mb 55f
3:00pm 16 17 mph 1016.5mb 56f
2:00pm 18 22 mph 1016.1mb 56f
1:00pm 18 21 mph 1015.9mb 56f
12:00pm 18 23 mph 1016.8mb 56f
11:00am 16 20 mph 1017.7mb 59f
10:00am 15 18 mph 1017.8mb 59f
9:00am 15 17 mph 1017.2mb 59f
8:00am 2
mph
1017mb 58f
7:00am 5
mph
1017mb 57f
6:00am 5
mph
1017mb 55f
5:00am 5 6 mph 1016.8mb 55f
4:00am 5
mph
1017mb 56f
3:00am 6
mph
1017.8mb 54f
2:00am 7
mph
1017.9mb 52f
1:00am 6 7 mph 1018mb 52f
12:00am 7 8 mph 1018mb 53f
Wed 12/07 11:00pm 7 8 mph 1018.3mb 55f
10:00pm 8 9 mph 1018.5mb 55f
9:00pm 8 9 mph 1018.5mb 52f
8:00pm 8
mph
1018.7mb 52f
7:00pm 8
mph
1018.3mb 52f
6:00pm 9 10 mph 1017.9mb 54f
5:00pm 6 7 mph 1017.4mb 54f
4:00pm 8 9 mph 1016.9mb 55f
3:00pm 11 14 mph 1016.5mb 55f
2:00pm 15 17 mph 1016mb 54f
1:00pm 11 14 mph 1015.7mb 54f
12:00pm 10 14 mph 1016.7mb 52f
11:00am 13 15 mph 1017.1mb 51f
10:00am 10 14 mph 1017mb 49f
9:00am 16 20 mph 1016.4mb 47f
8:00am 21 24 mph 1015.3mb 47f
7:00am 15 18 mph 1014.5mb 47f
6:00am 16 21 mph 1013mb 47f
5:00am 20 24 mph 1012.3mb 47f
4:00am 20 23 mph 1011.3mb 48f
3:00am 18 20 mph 1010.8mb 48f
2:00am 17 21 mph 1010mb 50f
1:00am 22 25 mph 1009.4mb 51f
12:00am 30 33 mph 1008.9mb 52f
Tue 12/06 11:00pm 25 29 mph 1008.1mb 55f
10:00pm 28 31 mph 1007.3mb 56f
9:00pm 30 37 mph 1006.4mb 59f
7:00pm 17 22 mph 1003.3mb 65f
6:00pm 17 24 mph 1003.4mb 65f
5:00pm 10 15 mph 1003.1mb 65f
4:00pm 8 11 mph 1002.4mb 66f
3:00pm 13 14 mph 1002.7mb 66f
2:00pm 20 24 mph 1002.4mb 66f
1:00pm 14 17 mph 1004.5mb 65f
12:00pm 29 30 mph 1006.7mb 64f
11:00am 25 28 mph 1008.7mb 64f
10:00am 23 25 mph 1010.7mb 64f
9:00am 21 23 mph 1011.5mb 64f
8:00am 22 24 mph 1011.8mb 60f
7:00am 23 26 mph 1012.9mb 59f
6:00am 22 25 mph 1013.7mb 56f
5:00am 24 28 mph 1014.9mb 54f
4:00am 24 29 mph 1015.4mb 54f
3:00am 17 23 mph 1016.2mb 52f
2:00am 16 20 mph 1015.9mb 51f
1:00am 14 17 mph 1016.7mb 51f
12:00am 17 21 mph 1016.8mb 50f
Mon 12/05 11:00pm 15 18 mph 1017.5mb 51f
10:00pm 13 17 mph 1018.3mb 53f
9:00pm 15 18 mph 1017mb 52f
8:00pm 20 23 mph 1017.3mb 55f